Time;durP1;ratioP1;P1;durP2;ratioP2;P2;SDS_P1;SDS_P2;PMS_P1;PMS_P2;Temp;Humidity;BMP_temperature;BMP_pressure;BME280_temperature;BME280_humidity;BME280_pressure;Samples;Min_cycle;Max_cycle;Signal;HPM_P1;HPM_P2
2022/10/11 00:02:09;;;;;;;24.17;11.48;;;;;;;4.08;100.00;102355.13;5136957;27;20027;-48
2022/10/11 00:04:34;;;;;;;22.98;11.25;;;;;;;3.93;100.00;102355.69;5135890;27;20022;-48
2022/10/11 00:07:00;;;;;;;22.58;10.45;;;;;;;3.78;100.00;102351.88;5137306;27;20023;-50
2022/10/11 00:09:25;;;;;;;19.58;10.73;;;;;;;3.72;100.00;102359.94;5136714;27;20012;-50
2022/10/11 00:11:53;;;;;;;25.15;12.30;;;;;;;3.72;100.00;102364.13;5135694;27;20019;-48
2022/10/11 00:14:19;;;;;;;16.20;10.50;;;;;;;3.62;100.00;102368.47;5136635;27;20385;-49
2022/10/11 00:16:44;;;;;;;15.90;10.85;;;;;;;3.56;100.00;102362.88;5136484;27;20477;-48
2022/10/11 00:19:10;;;;;;;18.92;10.55;;;;;;;3.61;100.00;102361.59;5135915;27;20409;-49
2022/10/11 00:21:36;;;;;;;19.85;11.77;;;;;;;3.50;100.00;102364.94;5136528;27;20080;-47
2022/10/11 00:24:02;;;;;;;22.52;12.98;;;;;;;3.44;100.00;102365.28;5136711;27;20027;-49
2022/10/11 00:26:28;;;;;;;23.08;13.15;;;;;;;3.49;100.00;102363.16;5135726;27;20031;-49
2022/10/11 00:28:53;;;;;;;23.10;13.23;;;;;;;3.56;100.00;102362.88;5136265;27;20025;-46
2022/10/11 00:31:19;;;;;;;29.33;13.63;;;;;;;3.57;100.00;102366.31;5136344;27;20055;-48
2022/10/11 00:33:44;;;;;;;26.33;13.50;;;;;;;3.58;100.00;102370.66;5135079;27;20035;-50
2022/10/11 00:36:12;;;;;;;27.58;13.57;;;;;;;3.59;100.00;102364.78;5135957;27;20035;-50
2022/10/11 00:38:38;;;;;;;;;;;;;;;3.63;100.00;102377.03;5135828;27;20031;-49
2022/10/11 00:41:03;;;;;;;25.40;12.60;;;;;;;3.54;100.00;102374.63;5136285;27;20316;-49
2022/10/11 00:43:30;;;;;;;36.42;14.60;;;;;;;3.62;100.00;102378.69;5136246;27;20034;-49
2022/10/11 00:45:55;;;;;;;33.75;15.32;;;;;;;3.63;100.00;102371.94;5135343;27;20087;-48
2022/10/11 00:48:26;;;;;;;39.57;16.17;;;;;;;3.69;100.00;102382.63;5136023;27;20055;-49
2022/10/11 00:50:53;;;;;;;34.88;16.23;;;;;;;3.75;100.00;102389.91;5135934;27;20318;-49
2022/10/11 00:53:21;;;;;;;33.75;15.95;;;;;;;3.75;100.00;102389.91;5135297;27;20047;-49
2022/10/11 00:56:12;;;;;;;26.20;13.30;;;;;;;3.72;100.00;102384.53;5135805;27;20042;-50
2022/10/11 00:58:37;;;;;;;25.27;12.75;;;;;;;3.62;100.00;102388.88;5135574;27;20401;-50
2022/10/11 01:01:03;;;;;;;24.30;12.82;;;;;;;3.59;100.00;102383.53;5135074;27;20466;-50
2022/10/11 01:03:31;;;;;;;27.42;13.50;;;;;;;3.68;100.00;102388.50;5135744;27;20020;-49
2022/10/11 01:05:57;;;;;;;25.70;14.05;;;;;;;3.58;100.00;102391.06;5135970;27;20382;-50
2022/10/11 01:08:23;;;;;;;28.25;14.07;;;;;;;3.61;100.00;102397.28;5134965;27;20493;-51
2022/10/11 01:10:49;;;;;;;27.10;12.88;;;;;;;3.63;100.00;102390.66;5135426;27;20493;-50
2022/10/11 01:13:35;;;;;;;27.85;11.80;;;;;;;3.53;100.00;102388.13;5135467;27;20012;-50
2022/10/11 01:16:35;;;;;;;26.00;11.40;;;;;;;3.56;100.00;102393.47;5134949;27;20015;-50
2022/10/11 01:19:48;;;;;;;21.55;11.77;;;;;;;3.50;100.00;102408.28;5135136;27;20034;-48
2022/10/11 01:22:42;;;;;;;29.10;13.07;;;;;;;3.53;100.00;102400.88;5134603;27;20035;-50
2022/10/11 01:25:33;;;;;;;23.77;11.18;;;;;;;3.37;100.00;102396.16;5135630;27;20102;-48
2022/10/11 01:28:14;;;;;;;23.85;12.63;;;;;;;3.43;100.00;102393.22;5134655;27;20031;-48
2022/10/11 01:30:40;;;;;;;24.23;11.68;;;;;;;3.32;100.00;102394.88;5135238;27;20033;-48
2022/10/11 01:33:17;;;;;;;27.58;12.88;;;;;;;3.37;100.00;102390.16;5135179;27;20031;-50
2022/10/11 01:36:07;;;;;;;24.65;12.55;;;;;;;3.40;100.00;102395.53;5134146;27;20023;-49
2022/10/11 01:38:40;;;;;;;19.90;11.90;;;;;;;3.27;100.00;102393.59;5134878;27;20510;-50
2022/10/11 01:41:29;;;;;;;26.02;12.75;;;;;;;3.31;100.00;102399.84;5135129;27;20023;-48
2022/10/11 01:43:59;;;;;;;19.42;11.38;;;;;;;3.17;100.00;102402.09;5134460;27;20062;-50
2022/10/11 01:46:27;;;;;;;18.95;11.60;;;;;;;3.12;100.00;102400.81;5133819;27;20027;-49
2022/10/11 01:48:56;;;;;;;28.58;12.45;;;;;;;3.17;100.00;102407.19;5134478;27;20371;-50
2022/10/11 01:51:34;;;;;;;28.48;13.77;;;;;;;3.12;100.00;102405.91;5135096;27;20062;-50
2022/10/11 01:54:12;;;;;;;24.92;12.95;;;;;;;3.19;100.00;102405.69;5134892;27;20110;-49
2022/10/11 01:56:56;;;;;;;23.55;13.35;;;;;;;3.23;100.00;102407.72;5133884;27;20031;-50
2022/10/11 01:59:30;;;;;;;22.38;12.27;;;;;;;3.20;100.00;102409.13;5134842;27;20039;-49
2022/10/11 02:02:04;;;;;;;36.72;15.02;;;;;;;3.26;100.00;102407.09;5134383;27;20031;-49
2022/10/11 02:04:33;;;;;;;35.60;15.40;;;;;;;3.25;100.00;102413.84;5133950;27;20075;-47
2022/10/11 02:07:20;;;;;;;32.45;15.48;;;;;;;3.18;100.00;102414.09;5134520;27;20023;-48
2022/10/11 02:10:08;;;;;;;29.65;15.52;;;;;;;3.21;100.00;102414.34;5134155;27;20469;-48
2022/10/11 02:12:41;;;;;;;22.63;12.20;;;;;;;2.97;100.00;102414.03;5134299;27;20015;-49
2022/10/11 02:15:09;;;;;;;25.05;12.85;;;;;;;3.04;100.00;102414.56;5134604;27;20031;-48
2022/10/11 02:17:40;;;;;;;;;;;;;;;3.13;100.00;102420.44;5133876;27;20027;-47
2022/10/11 02:20:11;;;;;;;19.45;9.52;;;;;;;2.63;100.00;102421.34;5134571;27;19911;-50
2022/10/11 02:22:41;;;;;;;18.17;9.55;;;;;;;2.70;100.00;102416.75;5134236;27;20351;-49
2022/10/11 02:25:11;;;;;;;21.58;11.18;;;;;;;2.74;100.00;102423.91;5133380;27;20538;-46
2022/10/11 02:27:39;;;;;;;26.45;11.45;;;;;;;2.60;100.00;102421.03;5134044;27;20031;-48
2022/10/11 02:30:06;;;;;;;25.63;12.07;;;;;;;2.56;100.00;102421.53;5134181;27;20027;-48
2022/10/11 02:32:33;;;;;;;22.85;11.23;;;;;;;2.51;100.00;102421.91;5133140;27;20044;-49
2022/10/11 02:35:00;;;;;;;20.13;11.60;;;;;;;2.57;100.00;102428.44;5134257;27;20027;-49
2022/10/11 02:37:37;;;;;;;22.35;12.35;;;;;;;2.60;100.00;102426.13;5134215;27;20054;-48
2022/10/11 02:40:22;;;;;;;24.63;13.55;;;;;;;2.61;100.00;102427.94;5133397;27;20031;-47
2022/10/11 02:43:00;;;;;;;31.20;15.07;;;;;;;2.68;100.00;102425.91;5133793;27;20122;-48
2022/10/11 02:45:35;;;;;;;26.23;15.13;;;;;;;2.75;100.00;102435.84;5133361;27;20033;-48
2022/10/11 02:48:01;;;;;;;23.65;13.40;;;;;;;2.63;100.00;102431.50;5133778;27;20496;-48
2022/10/11 02:50:27;;;;;;;21.73;13.38;;;;;;;2.57;100.00;102419.88;5133965;27;20023;-49
2022/10/11 02:52:52;;;;;;;24.05;12.52;;;;;;;2.61;100.00;102420.28;5132686;28;20033;-48
2022/10/11 02:55:17;;;;;;;20.05;12.40;;;;;;;2.63;100.00;102420.41;5133815;28;20098;-49
2022/10/11 02:57:43;;;;;;;23.75;13.98;;;;;;;2.69;100.00;102427.72;5134746;27;20351;-49
2022/10/11 03:00:09;;;;;;;20.52;11.23;;;;;;;2.47;100.00;102428.38;5137296;27;20080;-50
2022/10/11 03:02:34;;;;;;;27.92;12.65;;;;;;;2.61;100.00;102427.94;5137796;27;20031;-47
2022/10/11 03:04:59;;;;;;;26.55;13.30;;;;;;;2.58;100.00;102422.59;5138148;27;20161;-48
2022/10/11 03:07:25;;;;;;;32.45;15.50;;;;;;;2.64;100.00;102423.09;5137248;27;20024;-50
2022/10/11 03:09:50;;;;;;;28.58;14.43;;;;;;;2.57;100.00;102423.34;5137719;27;20027;-49
2022/10/11 03:12:15;;;;;;;32.05;16.40;;;;;;;2.71;100.00;102428.72;5138230;27;20027;-49
2022/10/11 03:14:41;;;;;;;33.05;14.80;;;;;;;2.67;100.00;102431.78;5137278;27;20026;-48
2022/10/11 03:17:06;;;;;;;27.33;15.70;;;;;;;2.71;100.00;102428.72;5137973;27;20527;-48
2022/10/11 03:19:32;;;;;;;23.00;13.10;;;;;;;2.52;100.00;102433.84;5137690;27;20034;-48
2022/10/11 03:21:57;;;;;;;20.25;11.18;;;;;;;2.30;100.00;102440.50;5136878;27;20030;-48
2022/10/11 03:24:23;;;;;;;20.33;12.30;;;;;;;2.40;100.00;102436.22;5137750;27;20526;-49
2022/10/11 03:26:48;;;;;;;19.25;12.23;;;;;;;2.38;100.00;102432.66;5137658;27;20033;-49
2022/10/11 03:29:13;;;;;;;21.15;12.50;;;;;;;2.24;100.00;102437.41;5136880;27;20370;-48
2022/10/11 03:31:39;;;;;;;19.17;12.20;;;;;;;2.23;100.00;102438.16;5137526;27;20023;-46
2022/10/11 03:34:04;;;;;;;26.33;13.88;;;;;;;2.33;100.00;102436.44;5137694;27;20019;-50
2022/10/11 03:36:30;;;;;;;21.60;12.20;;;;;;;2.23;100.00;102442.34;5136852;27;20019;-50
2022/10/11 03:38:55;;;;;;;24.48;12.38;;;;;;;2.23;100.00;102438.16;5137270;27;20363;-49
2022/10/11 03:41:20;;;;;;;23.17;15.45;;;;;;;2.32;100.00;102447.38;5137697;27;20038;-49
2022/10/11 03:43:45;;;;;;;27.45;15.70;;;;;;;2.30;100.00;102445.59;5136512;27;20110;-49
2022/10/11 03:46:11;;;;;;;30.27;15.70;;;;;;;2.30;100.00;102453.22;5137476;27;20098;-50
2022/10/11 03:48:36;;;;;;;28.75;16.67;;;;;;;2.32;100.00;102455.00;5136024;27;20118;-49
2022/10/11 03:51:01;;;;;;;26.50;13.93;;;;;;;2.27;100.00;102455.50;5137170;27;20031;-49
2022/10/11 03:53:27;;;;;;;25.23;13.05;;;;;;;2.20;100.00;102460.78;5137048;27;20114;-50
2022/10/11 03:55:53;;;;;;;24.55;13.95;;;;;;;2.20;100.00;102463.34;5136172;27;20031;-49
2022/10/11 03:58:19;;;;;;;24.30;14.73;;;;;;;2.17;100.00;102457.97;5137441;27;20019;-49
2022/10/11 04:00:44;;;;;;;23.60;14.52;;;;;;;2.24;100.00;102455.22;5136857;27;20029;-48
2022/10/11 04:03:10;;;;;;;25.42;15.18;;;;;;;2.23;100.00;102458.50;5136211;27;20031;-48
2022/10/11 04:05:35;;;;;;;30.42;17.20;;;;;;;2.27;100.00;102465.69;5136738;27;20374;-50
2022/10/11 04:08:01;;;;;;;32.97;19.17;;;;;;;2.36;100.00;102464.69;5136931;27;20047;-49
2022/10/11 04:10:26;;;;;;;36.03;18.48;;;;;;;2.34;100.00;102456.03;5135137;27;20019;-50
2022/10/11 04:12:51;;;;;;;31.45;19.38;;;;;;;2.40;100.00;102454.03;5136775;27;20039;-49
2022/10/11 04:15:17;;;;;;;33.90;19.45;;;;;;;2.42;100.00;102465.25;5137048;27;20023;-48
2022/10/11 04:17:42;;;;;;;34.13;20.08;;;;;;;2.45;100.00;102466.41;5135689;27;20359;-50
2022/10/11 04:20:08;;;;;;;35.47;20.13;;;;;;;2.40;100.00;102466.75;5136785;27;20110;-50
2022/10/11 04:22:33;;;;;;;36.85;19.90;;;;;;;2.43;100.00;102457.75;5136399;27;20035;-49
2022/10/11 04:24:59;;;;;;;29.45;18.77;;;;;;;2.40;100.00;102472.75;5135748;27;20026;-48
2022/10/11 04:27:27;;;;;;;32.83;16.77;;;;;;;2.33;100.00;102482.25;5136737;27;20029;-49
2022/10/11 04:29:53;;;;;;;22.25;14.52;;;;;;;2.26;100.00;102483.31;5136321;27;20016;-50
2022/10/11 04:32:18;;;;;;;26.77;14.88;;;;;;;2.24;100.00;102480.66;5135643;27;20034;-49
2022/10/11 04:34:44;;;;;;;21.98;12.95;;;;;;;2.11;100.00;102487.94;5136024;27;20015;-49
2022/10/11 04:37:09;;;;;;;23.48;12.95;;;;;;;2.10;100.00;102488.69;5136315;27;20118;-49
2022/10/11 04:39:34;;;;;;;26.75;13.05;;;;;;;2.02;100.00;102492.22;5135207;27;20026;-49
2022/10/11 04:42:00;;;;;;;26.55;14.15;;;;;;;2.09;100.00;102492.00;5136305;27;20099;-49
2022/10/11 04:44:25;;;;;;;27.27;15.65;;;;;;;2.12;100.00;102492.28;5136412;27;20366;-49
2022/10/11 04:46:50;;;;;;;20.25;13.80;;;;;;;2.01;100.00;102492.97;5135130;27;20031;-47
2022/10/11 04:49:15;;;;;;;21.38;12.88;;;;;;;1.98;100.00;102499.53;5136220;27;20072;-49
2022/10/11 04:51:42;;;;;;;24.70;13.65;;;;;;;1.83;100.00;102500.69;5135874;27;20067;-49
2022/10/11 04:54:07;;;;;;;22.35;14.25;;;;;;;1.80;100.00;102498.75;5135125;27;20027;-50
2022/10/11 04:56:32;;;;;;;26.30;15.27;;;;;;;1.81;100.00;102502.22;5135885;27;20030;-47
2022/10/11 04:58:57;;;;;;;23.60;15.45;;;;;;;1.87;100.00;102506.94;5135299;27;20435;-49
2022/10/11 05:01:23;;;;;;;27.80;16.63;;;;;;;1.83;100.00;102503.22;5135609;27;20038;-49
2022/10/11 05:03:48;;;;;;;27.35;17.38;;;;;;;1.86;100.00;102498.44;5135653;27;20034;-50
2022/10/11 05:06:13;;;;;;;24.25;14.23;;;;;;;1.75;100.00;102496.56;5134922;27;20069;-49
2022/10/11 05:08:39;;;;;;;24.90;14.48;;;;;;;1.79;100.00;102503.69;5135290;27;20025;-50
2022/10/11 05:11:09;;;;;;;26.30;15.25;;;;;;;1.75;100.00;102506.72;5135836;27;20027;-49
2022/10/11 05:13:35;;;;;;;34.47;16.40;;;;;;;1.83;100.00;102508.31;5134919;27;20034;-48
2022/10/11 05:16:01;;;;;;;26.48;16.52;;;;;;;1.92;100.00;102501.50;5135727;27;20019;-49
2022/10/11 05:18:27;;;;;;;26.30;15.60;;;;;;;1.83;100.00;102505.75;5135643;27;20034;-49
2022/10/11 05:21:05;;;;;;;30.20;15.10;;;;;;;1.74;100.00;102505.84;5134231;27;20378;-47
2022/10/11 05:23:32;;;;;;;20.15;13.50;;;;;;;1.71;100.00;102507.19;5135376;27;20023;-45
2022/10/11 05:25:58;;;;;;;23.63;13.63;;;;;;;1.62;100.00;102509.78;5135468;27;20102;-48
2022/10/11 05:28:23;;;;;;;23.58;14.10;;;;;;;1.70;100.00;102508.81;5134652;27;20102;-49
2022/10/11 05:30:49;;;;;;;28.25;15.50;;;;;;;1.76;100.00;102511.94;5135083;27;20477;-49
2022/10/11 05:33:14;;;;;;;28.23;14.95;;;;;;;1.74;100.00;102508.38;5135180;27;20493;-47
2022/10/11 05:35:39;;;;;;;23.42;14.73;;;;;;;1.76;100.00;102503.44;5134063;27;20034;-48
2022/10/11 05:38:05;;;;;;;24.95;15.13;;;;;;;1.76;100.00;102517.03;5135221;27;20026;-49
2022/10/11 05:40:30;;;;;;;21.13;13.35;;;;;;;1.46;100.00;102522.72;5134869;27;20031;-44
2022/10/11 05:42:56;;;;;;;22.00;12.52;;;;;;;1.44;100.00;102524.22;5134257;27;20038;-49
2022/10/11 05:45:21;;;;;;;26.42;14.32;;;;;;;1.44;100.00;102519.13;5135014;27;20015;-46
2022/10/11 05:47:46;;;;;;;32.72;15.95;;;;;;;1.59;100.00;102530.72;5134528;27;20397;-50
2022/10/11 05:50:11;;;;;;;30.58;15.30;;;;;;;1.52;100.00;102530.88;5134010;27;20019;-47
2022/10/11 05:52:37;;;;;;;23.33;15.93;;;;;;;1.58;100.00;102531.47;5134616;27;20378;-48
2022/10/11 05:55:02;;;;;;;30.83;17.55;;;;;;;1.64;100.00;102532.03;5134877;27;20054;-48
2022/10/11 05:57:28;;;;;;;30.52;16.65;;;;;;;1.73;100.00;102531.09;5133993;27;20035;-49
2022/10/11 05:59:53;;;;;;;25.38;15.27;;;;;;;1.62;100.00;102536.06;5134414;27;20122;-48
2022/10/11 06:02:19;;;;;;;21.38;13.90;;;;;;;1.61;100.00;102535.94;5134097;27;20031;-49
2022/10/11 06:04:44;;;;;;;24.35;15.43;;;;;;;1.61;100.00;102544.47;5134402;27;20386;-49
2022/10/11 06:07:09;;;;;;;25.65;16.20;;;;;;;1.66;100.00;102547.44;5134573;27;20035;-49
2022/10/11 06:09:35;;;;;;;24.00;16.73;;;;;;;1.78;100.00;102542.59;5133609;27;20466;-45
2022/10/11 06:12:00;;;;;;;21.30;13.48;;;;;;;1.61;100.00;102544.47;5134614;27;20023;-49
2022/10/11 06:14:26;;;;;;;20.83;12.82;;;;;;;1.52;100.00;102548.66;5134396;27;20076;-49
2022/10/11 06:16:51;;;;;;;21.50;13.88;;;;;;;1.64;100.00;102547.28;5133362;27;20015;-49
2022/10/11 06:19:16;;;;;;;26.38;14.45;;;;;;;1.63;100.00;102553.13;5134345;27;20043;-49
2022/10/11 06:21:42;;;;;;;22.58;15.40;;;;;;;1.69;100.00;102552.81;5133925;27;20027;-49
2022/10/11 06:24:08;;;;;;;29.23;16.77;;;;;;;1.77;100.00;102551.88;5133697;27;20080;-48
2022/10/11 06:26:33;;;;;;;28.98;16.48;;;;;;;1.87;100.00;102555.25;5134249;27;20026;-48
2022/10/11 06:28:59;;;;;;;37.47;17.70;;;;;;;1.96;100.00;102562.09;5134342;27;20027;-50
2022/10/11 06:31:24;;;;;;;26.00;18.15;;;;;;;1.93;100.00;102561.78;5133385;27;20026;-49
2022/10/11 06:33:50;;;;;;;35.00;23.40;;;;;;;2.05;100.00;102564.56;5133352;27;20031;-50
2022/10/11 06:36:16;;;;;;;34.95;22.23;;;;;;;2.11;100.00;102569.34;5134108;27;20035;-48
2022/10/11 06:38:41;;;;;;;24.17;17.45;;;;;;;2.12;100.00;102576.22;5133165;27;20072;-47
2022/10/11 06:41:21;;;;;;;31.88;17.50;;;;;;;2.20;100.00;102575.25;5134045;27;20027;-47
2022/10/11 06:43:48;;;;;;;27.58;16.80;;;;;;;2.23;100.00;102570.44;5133779;27;20034;-48
2022/10/11 06:46:15;;;;;;;23.88;15.50;;;;;;;2.17;100.00;102580.09;5133203;27;20068;-50
2022/10/11 06:48:42;;;;;;;26.20;15.63;;;;;;;2.24;100.00;102573.91;5133343;27;20039;-48
2022/10/11 06:51:08;;;;;;;26.95;17.17;;;;;;;2.41;100.00;102575.41;5134143;27;20058;-50
2022/10/11 06:53:33;;;;;;;22.33;16.25;;;;;;;2.49;100.00;102573.56;5132746;27;20376;-47
2022/10/11 06:56:10;;;;;;;23.23;16.13;;;;;;;2.50;100.00;102581.34;5133910;28;20030;-50
2022/10/11 06:58:37;;;;;;;25.23;17.03;;;;;;;2.61;100.00;102585.75;5132777;28;20562;-49
2022/10/11 07:01:05;;;;;;;25.73;17.30;;;;;;;2.73;100.00;102590.16;5133584;28;20748;-49
2022/10/11 07:03:31;;;;;;;29.48;18.02;;;;;;;2.80;100.00;102587.38;5133436;28;20023;-47
2022/10/11 07:06:04;;;;;;;23.85;17.55;;;;;;;2.87;100.00;102584.63;5132877;28;20102;-49
2022/10/11 07:08:30;;;;;;;23.52;17.63;;;;;;;3.02;100.00;102591.84;5133683;28;20463;-47
2022/10/11 07:11:16;;;;;;;33.80;19.08;;;;;;;3.09;100.00;102596.72;5133500;28;20019;-48
2022/10/11 07:13:41;;;;;;;29.40;19.65;;;;;;;3.21;100.00;102594.38;5132576;28;20020;-49
2022/10/11 07:16:11;;;;;;;30.90;21.48;;;;;;;3.41;100.00;102591.03;5133877;28;20052;-49
2022/10/11 07:18:37;;;;;;;37.88;22.23;;;;;;;3.56;100.00;102591.44;5133574;28;20045;-46
2022/10/11 07:21:07;;;;;;;38.08;22.73;;;;;;;3.68;100.00;102592.50;5132891;28;20030;-49
2022/10/11 07:23:33;;;;;;;39.10;25.60;;;;;;;3.86;100.00;102600.81;5133367;28;20498;-50
2022/10/11 07:25:58;;;;;;;45.45;28.70;;;;;;;4.10;100.00;102599.44;5133481;28;20027;-50
2022/10/11 07:28:24;;;;;;;54.60;35.47;;;;;;;4.31;100.00;102596.00;5132745;28;20050;-48
2022/10/11 07:30:50;;;;;;;43.35;26.90;;;;;;;4.39;100.00;102608.66;5133533;28;20038;-49
2022/10/11 07:33:15;;;;;;;44.15;30.75;;;;;;;4.61;100.00;102611.31;5133640;28;20526;-48
2022/10/11 07:35:40;;;;;;;51.15;32.63;;;;;;;4.86;100.00;102602.22;5132335;28;20464;-48
2022/10/11 07:38:06;;;;;;;57.80;38.42;;;;;;;5.09;100.00;102606.63;5133445;28;20033;-50
2022/10/11 07:40:33;;;;;;;62.00;38.30;;;;;;;5.39;100.00;102608.16;5133106;28;20436;-49
2022/10/11 07:42:59;;;;;;;58.33;36.00;;;;;;;5.59;100.00;102609.72;5132574;28;20325;-49
2022/10/11 07:45:27;;;;;;;51.63;32.95;;;;;;;5.79;100.00;102610.38;5137229;27;20031;-48
2022/10/11 07:47:55;;;;;;;45.10;30.42;;;;;;;5.94;100.00;102609.00;5136166;27;20043;-50
2022/10/11 07:50:20;;;;;;;43.80;28.80;;;;;;;6.01;100.00;102604.41;5137312;27;20027;-50
2022/10/11 07:52:45;;;;;;;41.58;28.40;;;;;;;6.16;100.00;102609.78;5136927;27;20027;-49
2022/10/11 07:55:10;;;;;;;43.72;28.13;;;;;;;6.47;100.00;102610.44;5136258;27;20062;-50
2022/10/11 07:57:36;;;;;;;39.80;25.15;;;;;;;6.76;100.00;102619.38;5137077;27;20087;-49
2022/10/11 08:00:01;;;;;;;39.35;24.40;;;;;;;6.89;100.00;102619.53;5137177;27;20011;-50
2022/10/11 08:02:26;;;;;;;38.58;24.98;;;;;;;7.09;100.00;102617.50;5136230;27;20118;-48
2022/10/11 08:04:52;;;;;;;38.33;22.02;;;;;;;7.31;100.00;102614.81;5136601;27;20059;-47
2022/10/11 08:07:17;;;;;;;38.55;21.05;;;;;;;7.48;100.00;102616.00;5136985;27;20470;-51
2022/10/11 08:09:42;;;;;;;40.85;19.55;;;;;;;7.76;100.00;102617.94;5135852;27;20019;-50
2022/10/11 08:12:08;;;;;;;32.95;18.10;;;;;;;7.90;100.00;102612.09;5136793;27;20039;-50
2022/10/11 08:14:34;;;;;;;38.10;17.77;;;;;;;7.99;100.00;102626.34;5136664;27;20031;-48
2022/10/11 08:16:59;;;;;;;51.78;30.15;;;;;;;8.14;100.00;102624.81;5136177;27;20470;-49
2022/10/11 08:19:24;;;;;;;35.10;21.70;;;;;;;8.31;100.00;102620.81;5136629;27;20483;-49
2022/10/11 08:21:49;;;;;;;34.60;15.38;;;;;;;8.61;100.00;102625.38;5136351;27;20027;-48
2022/10/11 08:24:19;;;;;;;31.77;15.25;;;;;;;8.77;100.00;102630.75;5135654;27;20019;-49
2022/10/11 08:26:45;;;;;;;35.72;15.00;;;;;;;8.92;100.00;102633.41;5136393;27;20020;-49
2022/10/11 08:29:10;;;;;;;33.38;15.55;;;;;;;9.03;100.00;102624.72;5136468;27;20030;-49
2022/10/11 08:31:35;;;;;;;27.65;13.93;;;;;;;9.17;100.00;102624.72;5135510;27;20058;-50
2022/10/11 08:34:01;;;;;;;31.83;18.10;;;;;;;9.32;100.00;102636.00;5136477;27;20106;-50
2022/10/11 08:36:26;;;;;;;33.05;15.60;;;;;;;9.45;100.00;102637.66;5136505;27;20020;-49
2022/10/11 08:38:52;;;;;;;31.60;14.30;;;;;;;9.64;100.00;102642.25;5135145;27;20015;-48
2022/10/11 08:41:27;;;;;;;31.05;13.68;;;;;;;9.99;100.00;102642.66;5136137;27;20055;-50
2022/10/11 08:44:04;;;;;;;25.42;13.32;;;;;;;10.15;100.00;102645.38;5136092;27;20019;-46
2022/10/11 08:46:32;;;;;;;27.20;12.38;;;;;;;10.27;100.00;102639.16;5136035;27;20363;-49
2022/10/11 08:49:00;;;;;;;27.17;11.02;;;;;;;10.40;96.65;102646.84;5136087;27;20035;-49
2022/10/11 08:51:25;;;;;;;;;;;;;;;10.52;100.00;102645.00;5135582;27;20062;-50
2022/10/11 08:53:54;;;;;;;25.70;12.73;;;;;;;10.76;100.00;102647.22;5135704;27;19957;-50
2022/10/11 08:56:22;;;;;;;24.00;13.27;;;;;;;10.87;98.58;102646.16;5135497;27;20098;-50
2022/10/11 08:58:51;;;;;;;27.58;12.05;;;;;;;11.03;96.71;102644.47;5134941;27;20034;-49
2022/10/11 09:01:20;;;;;;;24.17;13.18;;;;;;;11.23;98.14;102655.88;5135828;27;20023;-49
2022/10/11 09:03:47;;;;;;;31.10;12.73;;;;;;;11.63;96.69;102649.44;5135649;27;20068;-51
2022/10/11 09:06:41;;;;;;;27.05;11.23;;;;;;;11.81;94.76;102647.88;5134950;27;20019;-50
2022/10/11 09:09:45;;;;;;;22.10;8.90;;;;;;;11.91;92.58;102650.94;5135674;27;20382;-50
2022/10/11 09:12:24;;;;;;;27.45;11.10;;;;;;;12.06;91.13;102656.06;5134825;27;20067;-49
2022/10/11 09:15:15;;;;;;;26.98;10.77;;;;;;;12.32;92.82;102660.00;5135525;27;20030;-50
2022/10/11 09:18:08;;;;;;;29.90;13.27;;;;;;;12.67;100.00;102660.91;5135407;27;20024;-49
2022/10/11 09:20:51;;;;;;;23.38;8.98;;;;;;;13.09;92.33;102650.91;5134381;27;20477;-49
2022/10/11 09:23:41;;;;;;;21.35;8.00;;;;;;;13.27;88.36;102657.75;5135353;27;20531;-49
2022/10/11 09:26:11;;;;;;;21.45;6.43;;;;;;;13.30;78.96;102668.28;5134990;27;20027;-49
2022/10/11 09:28:49;;;;;;;24.23;6.32;;;;;;;13.38;79.55;102663.50;5135126;27;20023;-48
2022/10/11 09:31:14;;;;;;;;;;;;;;;13.59;87.35;102669.66;5135619;27;20111;-48
2022/10/11 09:33:47;;;;;;;23.80;6.40;;;;;;;13.86;79.67;102657.91;5134448;27;19943;-50
2022/10/11 09:36:23;;;;;;;18.70;5.75;;;;;;;14.18;78.23;102656.75;5135274;27;20110;-50
2022/10/11 09:39:04;;;;;;;17.27;5.13;;;;;;;14.48;77.25;102656.28;5134990;27;20027;-49
2022/10/11 09:41:34;;;;;;;25.70;5.38;;;;;;;14.71;71.74;102654.69;5134114;27;20035;-49
2022/10/11 09:43:59;;;;;;;23.40;5.55;;;;;;;15.09;71.18;102657.06;5135241;27;20023;-49
2022/10/11 09:46:30;;;;;;;22.00;4.75;;;;;;;15.42;71.63;102647.13;5135135;27;20371;-50
2022/10/11 09:48:56;;;;;;;13.70;3.92;;;;;;;15.85;68.71;102647.88;5133974;27;20151;-50
2022/10/11 09:51:25;;;;;;;23.92;4.90;;;;;;;16.56;65.95;102647.75;5134983;27;20427;-49
2022/10/11 09:53:55;;;;;;;18.58;4.43;;;;;;;16.88;63.77;102652.28;5134533;27;20096;-50
2022/10/11 09:56:23;;;;;;;15.73;4.30;;;;;;;17.05;58.84;102656.31;5133966;27;20088;-51
2022/10/11 09:58:48;;;;;;;15.00;4.35;;;;;;;17.17;56.49;102654.94;5134711;27;20020;-50
2022/10/11 10:01:25;;;;;;;21.17;4.10;;;;;;;17.26;58.72;102657.81;5134677;27;20023;-49
2022/10/11 10:04:07;;;;;;;16.55;3.88;;;;;;;17.45;57.76;102661.88;5134312;27;20976;-47
2022/10/11 10:06:32;;;;;;;20.83;4.47;;;;;;;17.40;54.48;102661.75;5134064;27;20038;-49
2022/10/11 10:09:29;;;;;;;23.55;5.00;;;;;;;17.92;57.13;102664.09;5133216;27;20031;-48
2022/10/11 10:11:56;;;;;;;17.23;4.20;;;;;;;18.19;52.00;102663.13;5134396;27;20026;-51
2022/10/11 10:14:27;;;;;;;15.80;3.40;;;;;;;18.33;50.88;102656.56;5134556;27;20098;-50
2022/10/11 10:17:14;;;;;;;21.80;3.58;;;;;;;19.29;53.98;102658.03;5133319;27;20034;-51
2022/10/11 10:19:47;;;;;;;17.90;3.40;;;;;;;19.34;47.97;102657.28;5134019;27;20491;-49
2022/10/11 10:22:18;;;;;;;14.23;2.92;;;;;;;18.96;44.51;102649.44;5134327;27;20107;-50
2022/10/11 10:24:44;;;;;;;19.67;3.92;;;;;;;18.67;45.75;102648.69;5133364;27;20019;-50
2022/10/11 10:27:09;;;;;;;15.30;3.35;;;;;;;18.97;45.37;102646.00;5134226;27;20049;-50
2022/10/11 10:29:34;;;;;;;13.53;2.63;;;;;;;19.55;45.18;102645.53;5133082;27;20390;-49
2022/10/11 10:32:09;;;;;;;18.80;3.30;;;;;;;19.73;47.08;102651.13;5134311;27;20027;-48
2022/10/11 10:34:38;;;;;;;20.45;3.60;;;;;;;19.51;43.73;102655.03;5134118;27;20019;-50
2022/10/11 10:37:28;;;;;;;21.10;3.63;;;;;;;19.96;49.77;102648.13;5133418;27;20028;-50
2022/10/11 10:40:07;;;;;;;14.15;3.22;;;;;;;20.00;46.84;102649.03;5133811;27;20016;-50
2022/10/11 10:42:33;;;;;;;16.98;3.92;;;;;;;20.35;41.86;102646.22;5133913;27;20031;-51
2022/10/11 10:44:58;;;;;;;21.60;3.15;;;;;;;20.67;43.32;102646.75;5133343;27;20030;-49
2022/10/11 10:47:42;;;;;;;17.48;3.72;;;;;;;20.68;44.20;102650.25;5133880;27;20037;-51
2022/10/11 10:50:15;;;;;;;17.27;3.42;;;;;;;20.83;42.23;102649.66;5133922;27;20096;-50
2022/10/11 10:52:52;;;;;;;17.75;3.88;;;;;;;21.05;44.99;102649.13;5133135;27;20084;-50
2022/10/11 10:55:27;;;;;;;16.10;2.55;;;;;;;21.40;40.03;102647.84;5134004;27;20023;-50
2022/10/11 10:57:52;;;;;;;16.67;3.15;;;;;;;21.59;40.03;102642.88;5133044;28;20130;-48
2022/10/11 11:00:20;;;;;;;20.07;3.10;;;;;;;20.85;38.60;102642.69;5133776;28;20054;-51
2022/10/11 11:02:55;;;;;;;18.67;3.30;;;;;;;21.53;38.91;102643.66;5133382;28;20412;-52
2022/10/11 11:05:50;;;;;;;15.00;2.85;;;;;;;21.31;41.81;102645.97;5133241;28;20068;-50
2022/10/11 11:08:38;;;;;;;19.75;2.92;;;;;;;21.86;40.39;102642.34;5133706;28;20414;-51
2022/10/11 11:11:06;;;;;;;19.67;3.10;;;;;;;21.84;37.05;102638.78;5133677;28;20521;-51
2022/10/11 11:13:43;;;;;;;19.67;3.47;;;;;;;21.51;41.23;102634.88;5133003;28;20062;-51
2022/10/11 11:16:30;;;;;;;19.17;3.10;;;;;;;21.81;39.46;102639.66;5133866;28;20067;-48
2022/10/11 11:19:04;;;;;;;20.08;3.35;;;;;;;21.85;37.17;102632.69;5134156;27;20122;-50
2022/10/11 11:21:50;;;;;;;20.98;3.42;;;;;;;22.07;39.02;102630.31;5137487;27;20484;-50
2022/10/11 11:24:23;;;;;;;16.95;3.20;;;;;;;21.32;36.01;102629.38;5138030;27;20027;-50